createdAt,value
2018-05-04T01:17:46.659Z,12.90
2018-05-04T01:20:12.966Z,12.80
2018-05-04T01:22:39.255Z,12.60
2018-05-04T01:25:05.452Z,12.80
2018-05-04T01:27:31.711Z,12.80
2018-05-04T01:30:18.163Z,12.80
2018-05-04T01:32:58.247Z,12.70
2018-05-04T01:35:24.592Z,12.70
2018-05-04T01:37:52.610Z,12.70
2018-05-04T01:40:24.179Z,12.60
2018-05-04T01:42:51.192Z,12.70
2018-05-04T01:45:17.519Z,12.70
2018-05-04T01:47:43.871Z,12.70
2018-05-04T01:52:47.405Z,12.50
2018-05-04T01:55:13.761Z,12.70
2018-05-04T01:57:41.659Z,12.70
2018-05-04T02:00:07.964Z,12.70
2018-05-04T07:07:25.346Z,13.30
2018-05-04T07:09:51.495Z,13.30
2018-05-04T07:12:17.598Z,13.30
2018-05-04T07:14:43.712Z,13.20
2018-05-04T07:17:09.995Z,13.20
2018-05-04T07:19:36.119Z,13.30
2018-05-04T07:22:02.403Z,13.40
2018-05-04T07:24:29.190Z,13.50
2018-05-04T07:26:57.815Z,13.50
2018-05-04T07:29:23.918Z,13.60
2018-05-04T07:31:50.083Z,13.60
2018-05-04T07:34:17.111Z,13.90
2018-05-04T07:36:43.279Z,13.70
2018-05-04T07:39:09.437Z,14.00
2018-05-04T07:41:36.227Z,14.00
2018-05-04T07:44:02.390Z,14.00
2018-05-04T07:46:28.679Z,14.00
2018-05-04T07:48:54.802Z,14.10
2018-05-04T07:51:20.940Z,14.10
2018-05-04T07:53:53.782Z,14.20
2018-05-04T07:59:25.581Z,14.50
2018-05-04T08:01:51.760Z,14.50
2018-05-04T08:04:17.890Z,14.60
2018-05-04T08:06:47.171Z,14.70
2018-05-04T08:21:09.177Z,15.10
2018-05-04T08:23:35.334Z,15.10
2018-05-04T08:26:01.468Z,15.20
2018-05-04T08:28:27.647Z,15.30
2018-05-04T08:31:02.351Z,15.40
2018-05-04T08:33:28.999Z,15.50
2018-05-04T08:35:59.494Z,15.60
2018-05-04T08:38:25.726Z,15.60
2018-05-04T08:40:52.809Z,15.70
2018-05-04T08:43:18.948Z,15.60
2018-05-04T08:45:45.089Z,15.80
2018-05-04T08:48:12.005Z,15.90
2018-05-04T08:50:38.855Z,16.10
2018-05-04T08:53:05.014Z,16.10
2018-05-04T08:55:31.212Z,16.20
2018-05-04T09:00:34.582Z,16.30
2018-05-04T09:03:02.131Z,16.20
2018-05-04T09:05:28.442Z,16.30
2018-05-04T09:07:54.556Z,16.40
2018-05-04T09:10:20.813Z,16.50
2018-05-04T09:12:47.659Z,16.50
2018-05-04T09:15:13.789Z,16.50
2018-05-04T09:17:45.387Z,16.60
2018-05-04T09:20:14.747Z,16.50
2018-05-04T09:22:43.473Z,16.70
2018-05-04T09:25:15.000Z,16.80
2018-05-04T09:27:46.474Z,17.20
2018-05-04T09:30:13.543Z,17.10
2018-05-04T09:32:39.710Z,17.30
2018-05-04T09:35:07.110Z,17.30
2018-05-04T09:37:34.680Z,17.30
2018-05-04T09:40:03.481Z,17.30
2018-05-04T09:42:31.616Z,17.30
2018-05-04T09:44:57.808Z,17.30
2018-05-04T09:47:28.403Z,17.30
2018-05-04T09:49:59.626Z,17.50
2018-05-04T09:52:25.847Z,17.40
2018-05-04T09:54:52.087Z,17.60
2018-05-04T09:57:22.141Z,17.40
2018-05-04T09:59:48.575Z,17.50
2018-05-04T10:02:16.306Z,17.50
2018-05-04T10:04:42.530Z,17.60
2018-05-04T10:07:09.255Z,17.50
2018-05-04T10:09:36.633Z,17.50
2018-05-04T10:12:05.492Z,17.50
2018-05-04T10:14:37.040Z,17.70
2018-05-04T10:17:03.265Z,17.70
2018-05-04T10:19:34.891Z,17.80
2018-05-04T10:22:02.089Z,17.80
2018-05-04T10:27:00.494Z,18.10
2018-05-04T10:29:27.181Z,18.20
2018-05-04T10:31:56.237Z,18.40
2018-05-04T10:34:34.764Z,18.60
2018-05-04T10:37:01.630Z,18.70
2018-05-04T10:39:29.377Z,18.80
2018-05-04T10:41:55.555Z,18.70
2018-05-04T10:44:22.892Z,18.60
2018-05-04T10:46:52.548Z,18.60
2018-05-04T10:49:30.009Z,18.60
2018-05-04T10:51:57.264Z,18.60
2018-05-04T10:54:23.499Z,18.70
2018-05-04T10:56:50.313Z,18.90
2018-05-04T10:59:18.453Z,18.80
2018-05-04T11:01:44.901Z,18.80
2018-05-04T11:04:18.274Z,18.80
2018-05-04T11:06:45.030Z,18.50
2018-05-04T11:09:12.553Z,18.90
2018-05-04T11:11:38.864Z,19.00
2018-05-04T11:14:05.864Z,19.00
2018-05-04T11:16:32.505Z,19.10
2018-05-04T11:19:07.097Z,19.00
2018-05-04T11:21:35.583Z,19.10
2018-05-04T11:24:04.796Z,19.00
2018-05-04T11:26:31.541Z,19.00
2018-05-04T11:28:58.136Z,19.00
2018-05-04T11:31:32.098Z,18.90
2018-05-04T11:33:59.985Z,18.90
2018-05-04T11:36:29.472Z,18.90
2018-05-04T11:38:55.714Z,19.00
2018-05-04T11:41:24.152Z,19.20
2018-05-04T11:43:55.262Z,19.10
2018-05-04T11:46:22.538Z,19.30
2018-05-04T11:48:49.364Z,19.30
2018-05-04T11:51:19.760Z,19.30
2018-05-04T11:53:46.959Z,19.60
2018-05-04T11:56:18.367Z,19.60
2018-05-04T11:58:45.625Z,19.70
2018-05-04T12:01:12.736Z,19.70
2018-05-04T12:03:40.471Z,19.70
2018-05-04T12:06:07.131Z,20.00
2018-05-04T12:08:33.450Z,20.00
2018-05-04T12:11:00.254Z,20.00
2018-05-04T12:13:26.975Z,20.00
2018-05-04T12:15:59.797Z,19.80
2018-05-04T12:18:26.636Z,20.00
2018-05-04T12:20:58.089Z,20.00
2018-05-04T12:23:30.150Z,20.10
2018-05-04T12:25:57.482Z,20.20
2018-05-04T12:28:23.713Z,20.40
2018-05-04T12:33:21.657Z,20.30
2018-05-04T12:35:48.073Z,20.50
2018-05-04T12:38:15.099Z,20.50
2018-05-04T12:40:45.259Z,20.50
2018-05-04T12:43:15.277Z,20.50
2018-05-04T12:45:41.804Z,20.70
2018-05-04T12:48:09.785Z,20.50
2018-05-04T12:50:42.379Z,20.30
2018-05-04T12:53:11.585Z,20.30
2018-05-04T12:55:38.627Z,20.50
2018-05-04T12:58:05.750Z,20.50
2018-05-04T13:00:33.309Z,20.50
2018-05-04T13:03:00.283Z,20.60
2018-05-04T13:05:27.629Z,20.70
2018-05-04T13:07:54.145Z,20.80
2018-05-04T13:10:25.185Z,21.00
2018-05-04T13:12:52.160Z,21.00
2018-05-04T13:15:22.706Z,21.10
2018-05-04T13:17:49.835Z,21.10
2018-05-04T13:20:16.712Z,21.20
2018-05-04T13:22:43.778Z,21.30
2018-05-04T13:25:10.903Z,21.10
2018-05-04T13:27:40.303Z,21.10
2018-05-04T13:30:06.523Z,21.20
2018-05-04T13:32:33.188Z,21.40
2018-05-04T13:34:59.428Z,21.40
2018-05-04T13:37:25.674Z,21.60
2018-05-04T13:39:52.727Z,21.60
2018-05-04T13:42:19.385Z,21.60
2018-05-04T13:44:46.439Z,21.40
2018-05-04T13:47:13.564Z,21.40
2018-05-04T13:49:45.141Z,21.50
2018-05-04T13:52:11.751Z,21.60
2018-05-04T13:54:38.876Z,21.20
2018-05-04T13:57:10.166Z,21.20
2018-05-04T13:59:36.655Z,21.20
2018-05-04T14:02:04.272Z,21.20
2018-05-04T14:04:31.126Z,21.30
2018-05-04T14:09:43.390Z,21.50
2018-05-04T14:12:10.753Z,21.70
2018-05-04T14:14:39.384Z,21.70
2018-05-04T14:17:06.691Z,21.60
2018-05-04T14:19:37.843Z,21.70
2018-05-04T14:22:08.416Z,21.60
2018-05-04T14:24:39.442Z,21.70
2018-05-04T14:27:07.724Z,21.80
2018-05-04T14:29:38.196Z,21.90
2018-05-04T14:32:09.058Z,21.60
2018-05-04T14:34:36.299Z,21.80
2018-05-04T14:37:02.734Z,21.80
2018-05-04T14:39:29.911Z,21.60
2018-05-04T14:41:56.244Z,21.80
2018-05-04T14:44:23.708Z,21.80
2018-05-04T14:46:50.277Z,21.80
2018-05-04T14:49:16.643Z,22.10
2018-05-04T14:51:45.934Z,21.90
2018-05-04T14:54:12.985Z,21.70
2018-05-04T14:56:46.952Z,21.80
2018-05-04T14:59:14.080Z,21.90
2018-05-04T15:01:40.443Z,21.80
2018-05-04T15:04:06.904Z,21.70
2018-05-04T15:06:33.715Z,21.60
2018-05-04T15:09:07.128Z,21.40
2018-05-04T15:11:33.617Z,21.40
2018-05-04T15:14:00.781Z,21.30
2018-05-04T15:16:27.653Z,21.20
2018-05-04T15:18:53.965Z,21.40
2018-05-04T15:21:23.087Z,21.50
2018-05-04T15:23:53.799Z,21.70
2018-05-04T15:26:21.023Z,21.70
2018-05-04T15:28:52.854Z,21.70
2018-05-04T15:31:20.017Z,21.90
2018-05-04T15:33:46.362Z,21.90
2018-05-04T15:36:13.652Z,21.90
2018-05-04T15:38:40.631Z,21.80
2018-05-04T15:41:10.580Z,21.80
2018-05-04T15:43:36.821Z,21.80
2018-05-04T15:46:04.737Z,21.80
2018-05-04T15:48:37.015Z,21.70
2018-05-04T15:51:10.026Z,21.80
2018-05-04T18:57:59.618Z,18.50
2018-05-04T19:03:17.597Z,18.30
2018-05-04T19:05:43.962Z,18.30
2018-05-04T19:08:19.352Z,18.30
2018-05-04T19:10:45.714Z,18.30
2018-05-04T19:13:16.989Z,18.20
2018-05-04T19:18:22.482Z,18.10
2018-05-04T19:23:30.632Z,18.10
2018-05-04T19:25:56.985Z,18.10
2018-05-04T19:28:23.278Z,17.90
2018-05-04T19:30:49.669Z,17.90
2018-05-04T19:36:20.432Z,17.90
2018-05-04T19:38:56.594Z,17.90
2018-05-04T19:41:25.507Z,17.80
2018-05-04T19:43:53.945Z,17.70
2018-05-04T19:51:53.804Z,17.70
2018-05-04T19:57:00.640Z,17.60
2018-05-04T19:59:26.866Z,17.50
2018-05-04T20:01:54.061Z,17.50
2018-05-04T20:04:21.059Z,17.40
2018-05-04T20:06:47.630Z,17.50
2018-05-04T20:09:13.791Z,17.50
2018-05-04T20:11:39.982Z,17.40
2018-05-04T20:14:08.351Z,17.40
2018-05-04T20:16:34.820Z,17.30
2018-05-04T20:19:01.770Z,17.30
2018-05-04T20:21:29.187Z,17.20
2018-05-04T20:23:55.557Z,17.30
2018-05-04T20:26:21.901Z,17.20
2018-05-04T20:28:48.188Z,17.20
2018-05-04T20:31:14.368Z,17.20
2018-05-04T20:33:40.816Z,17.20
2018-05-04T20:36:07.827Z,17.10
2018-05-04T20:38:34.008Z,17.00
2018-05-04T20:41:00.250Z,17.00
2018-05-04T20:43:26.626Z,17.00
2018-05-04T20:45:54.134Z,17.00
2018-05-04T20:48:20.464Z,17.00
2018-05-04T20:50:46.670Z,16.90
2018-05-04T20:53:12.836Z,16.90
2018-05-04T20:55:39.122Z,16.90
2018-05-04T20:58:05.307Z,16.90
2018-05-04T21:00:31.473Z,16.80
2018-05-04T21:02:57.772Z,16.80
2018-05-04T21:05:23.972Z,16.80
2018-05-04T21:07:50.326Z,16.80
2018-05-04T21:10:16.487Z,16.50
2018-05-04T21:12:43.131Z,16.50
2018-05-04T21:15:09.298Z,16.60
2018-05-04T21:17:38.733Z,16.60
2018-05-04T21:20:04.960Z,16.60
2018-05-04T21:22:31.210Z,16.60
2018-05-04T21:24:58.256Z,16.60
2018-05-04T21:27:38.171Z,16.60
2018-05-04T21:30:06.466Z,16.60
2018-05-04T21:32:34.525Z,16.40
2018-05-04T21:35:01.516Z,16.50
2018-05-04T21:37:27.732Z,16.40
2018-05-04T21:39:53.936Z,16.40
2018-05-04T21:42:20.195Z,16.40
2018-05-04T21:44:46.502Z,16.30
2018-05-04T21:47:12.823Z,16.20
2018-05-04T21:49:39.079Z,16.30
2018-05-04T21:52:05.400Z,16.30
2018-05-04T21:54:31.603Z,16.20
2018-05-04T21:56:57.790Z,16.20
2018-05-04T21:59:23.951Z,16.00
2018-05-04T22:01:50.105Z,16.10
2018-05-04T22:04:16.281Z,16.10
2018-05-04T22:06:42.448Z,16.10
2018-05-04T22:09:09.379Z,16.10
2018-05-04T22:11:35.640Z,16.00
2018-05-04T22:14:02.138Z,16.10
2018-05-04T22:16:28.296Z,16.10
2018-05-04T22:18:54.448Z,16.00
2018-05-04T22:21:20.632Z,16.00
2018-05-04T22:23:47.563Z,16.00
2018-05-04T22:26:14.499Z,15.90
2018-05-04T22:28:40.657Z,15.90
2018-05-04T22:31:06.955Z,15.90
2018-05-04T22:33:33.903Z,15.90
2018-05-04T22:36:00.079Z,15.80
2018-05-04T22:38:26.272Z,15.70
2018-05-04T22:40:52.518Z,15.80
2018-05-04T22:43:18.681Z,15.80
2018-05-04T22:45:44.900Z,15.80
2018-05-04T22:48:11.115Z,15.80
2018-05-04T22:50:37.653Z,15.70
2018-05-04T22:53:03.975Z,15.70
2018-05-04T22:55:30.915Z,15.60
2018-05-04T22:57:57.059Z,15.70
2018-05-04T23:00:23.338Z,15.60
2018-05-04T23:02:49.507Z,15.60
2018-05-04T23:05:15.650Z,15.60
2018-05-04T23:07:42.084Z,15.60
2018-05-04T23:10:08.416Z,15.60
2018-05-04T23:12:34.829Z,15.50
2018-05-04T23:15:01.124Z,15.50
2018-05-04T23:17:27.307Z,15.50
2018-05-04T23:19:53.434Z,15.50
2018-05-04T23:22:28.390Z,15.50
2018-05-04T23:24:55.301Z,15.40
2018-05-04T23:27:21.529Z,15.40
2018-05-04T23:29:47.752Z,15.40
2018-05-04T23:32:13.935Z,15.40
2018-05-04T23:34:40.084Z,15.30
2018-05-04T23:37:06.265Z,15.30
2018-05-04T23:39:32.427Z,15.20
2018-05-04T23:41:58.667Z,15.20
2018-05-04T23:44:24.912Z,15.20
2018-05-04T23:46:51.059Z,15.10
2018-05-04T23:49:22.645Z,15.00
2018-05-04T23:51:48.814Z,15.00
2018-05-04T23:54:14.968Z,15.00
2018-05-04T23:56:41.119Z,15.00
2018-05-04T23:59:07.364Z,14.90
